Time,TemperatureF,DewpointF,PressureIn,WindDirection,WindDirectionDegrees,WindSpeedMPH,WindSpeedGustMPH,Humidity,HourlyPrecipIn,Conditions,Clouds,dailyrainin,SoftwareType,DateUTC
2013-03-16 00:00:00,32.0,28.3,29.71,SW,229,0.0,6.0,86,0.00,,,0.00,WeatherCatV1.02B3,2013-03-16 04:00:00,
2013-03-16 00:05:00,31.9,28.2,29.71,WNW,298,3.0,5.0,86,0.00,,,0.00,WeatherCatV1.02B3,2013-03-16 04:05:00,
2013-03-16 00:06:00,31.9,28.2,29.71,West,265,0.0,5.0,86,0.00,,,0.00,WeatherCatV1.02B3,2013-03-16 04:06:00,
2013-03-16 00:11:00,32.0,28.0,29.71,SSW,200,4.0,7.0,85,0.00,,,0.00,WeatherCatV1.02B3,2013-03-16 04:11:00,
2013-03-16 00:16:00,32.0,27.7,29.72,WNW,290,3.0,5.0,84,0.00,,,0.00,WeatherCatV1.02B3,2013-03-16 04:16:00,
2013-03-16 00:21:00,32.1,27.5,29.72,WSW,257,10.0,10.0,83,0.00,,,0.00,WeatherCatV1.02B3,2013-03-16 04:21:00,
2013-03-16 00:26:00,32.1,27.5,29.72,West,281,1.0,7.0,83,0.00,,,0.00,WeatherCatV1.02B3,2013-03-16 04:26:00,
2013-03-16 00:31:00,32.0,27.4,29.72,WNW,284,3.0,6.0,83,0.00,,,0.00,WeatherCatV1.02B3,2013-03-16 04:31:00,
2013-03-16 00:36:00,32.0,27.4,29.72,West,281,4.0,10.0,83,0.00,,,0.00,WeatherCatV1.02B3,2013-03-16 04:36:00,
2013-03-16 00:41:00,32.0,27.1,29.73,West,270,5.0,5.0,82,0.00,,,0.00,WeatherCatV1.02B3,2013-03-16 04:41:00,
2013-03-16 00:46:00,32.0,27.1,29.73,West,279,4.0,8.0,82,0.00,,,0.00,WeatherCatV1.02B3,2013-03-16 04:46:00,
2013-03-16 00:51:00,32.0,27.1,29.73,West,277,0.0,0.0,82,0.00,,,0.00,WeatherCatV1.02B3,2013-03-16 04:51:00,
2013-03-16 00:56:00,32.1,27.2,29.73,WNW,290,1.0,11.0,82,0.00,,,0.00,WeatherCatV1.02B3,2013-03-16 04:56:00,
2013-03-16 01:01:00,32.2,27.0,29.74,WNW,285,0.0,0.0,81,0.00,,,0.00,WeatherCatV1.02B3,2013-03-16 05:01:00,
2013-03-16 01:06:00,32.3,27.1,29.74,WNW,287,5.0,11.0,81,0.00,,,0.00,WeatherCatV1.02B3,2013-03-16 05:06:00,
2013-03-16 01:11:00,32.4,26.6,29.74,WNW,286,0.0,8.0,79,0.00,,,0.00,WeatherCatV1.02B3,2013-03-16 05:11:00,
2013-03-16 01:16:00,32.5,26.7,29.74,NNW,329,5.0,10.0,79,0.00,,,0.00,WeatherCatV1.02B3,2013-03-16 05:16:00,
2013-03-16 01:21:00,32.3,27.4,29.74,WNW,289,0.0,5.0,82,0.00,,,0.00,WeatherCatV1.02B3,2013-03-16 05:21:00,
2013-03-16 01:26:00,31.7,27.4,29.74,NW,311,0.0,7.0,84,0.00,,,0.00,WeatherCatV1.02B3,2013-03-16 05:26:00,
2013-03-16 01:31:00,31.4,27.4,29.75,NW,322,6.0,7.0,85,0.00,,,0.00,WeatherCatV1.02B3,2013-03-16 05:31:00,
2013-03-16 01:36:00,31.3,27.0,29.75,WNW,294,0.0,3.0,84,0.00,,,0.00,WeatherCatV1.02B3,2013-03-16 05:36:00,
2013-03-16 01:41:00,31.2,26.6,29.75,West,268,1.0,5.0,83,0.00,,,0.00,WeatherCatV1.02B3,2013-03-16 05:41:00,
2013-03-16 01:46:00,31.1,26.6,29.76,West,271,2.0,5.0,83,0.00,,,0.00,WeatherCatV1.02B3,2013-03-16 05:46:00,
2013-03-16 01:51:00,31.0,26.5,29.76,WNW,297,1.0,8.0,83,0.00,,,0.00,WeatherCatV1.02B3,2013-03-16 05:51:00,
2013-03-16 01:56:00,31.0,26.2,29.76,NNW,344,5.0,6.0,82,0.00,,,0.00,WeatherCatV1.02B3,2013-03-16 05:56:00,
2013-03-16 02:01:00,31.0,26.2,29.76,WNW,302,7.0,7.0,82,0.00,,,0.00,WeatherCatV1.02B3,2013-03-16 06:01:00,
2013-03-16 02:06:00,31.1,25.7,29.76,WNW,290,1.0,5.0,80,0.00,,,0.00,WeatherCatV1.02B3,2013-03-16 06:06:00,
2013-03-16 02:11:00,31.1,25.4,29.76,NNE,32,0.0,7.0,79,0.00,,,0.00,WeatherCatV1.02B3,2013-03-16 06:11:00,
2013-03-16 02:16:00,31.2,24.8,29.76,NW,313,0.0,1.0,77,0.00,,,0.00,WeatherCatV1.02B3,2013-03-16 06:16:00,
2013-03-16 02:21:00,31.1,24.7,29.77,West,272,0.0,6.0,77,0.00,,,0.00,WeatherCatV1.02B3,2013-03-16 06:21:00,
2013-03-16 02:26:00,31.1,24.7,29.77,NNW,343,7.0,9.0,77,0.00,,,0.00,WeatherCatV1.02B3,2013-03-16 06:26:00,
2013-03-16 02:31:00,31.0,24.3,29.77,NW,318,8.0,8.0,76,0.00,,,0.00,WeatherCatV1.02B3,2013-03-16 06:31:00,
2013-03-16 02:36:00,30.8,24.1,29.77,WNW,301,1.0,5.0,76,0.00,,,0.00,WeatherCatV1.02B3,2013-03-16 06:36:00,
2013-03-16 02:41:00,30.7,23.7,29.77,WNW,297,3.0,8.0,75,0.00,,,0.00,WeatherCatV1.02B3,2013-03-16 06:41:00,
2013-03-16 02:46:00,30.6,23.6,29.77,NW,304,4.0,6.0,75,0.00,,,0.00,WeatherCatV1.02B3,2013-03-16 06:46:00,
2013-03-16 02:51:00,30.5,23.9,29.77,WNW,295,3.0,3.0,76,0.00,,,0.00,WeatherCatV1.02B3,2013-03-16 06:51:00,
2013-03-16 02:56:00,30.4,23.8,29.77,West,270,0.0,2.0,76,0.00,,,0.00,WeatherCatV1.02B3,2013-03-16 06:56:00,
2013-03-16 03:01:00,30.2,23.6,29.77,West,275,2.0,4.0,76,0.00,,,0.00,WeatherCatV1.02B3,2013-03-16 07:01:00,
2013-03-16 03:06:00,30.1,23.8,29.77,West,261,2.0,3.0,77,0.00,,,0.00,WeatherCatV1.02B3,2013-03-16 07:06:00,
2013-03-16 03:11:00,30.1,23.8,29.78,NNW,336,4.0,6.0,77,0.00,,,0.00,WeatherCatV1.02B3,2013-03-16 07:11:00,
2013-03-16 03:16:00,30.0,23.4,29.78,NW,309,0.0,3.0,76,0.00,,,0.00,WeatherCatV1.02B3,2013-03-16 07:16:00,
2013-03-16 03:21:00,30.1,23.5,29.78,NW,305,0.0,7.0,76,0.00,,,0.00,WeatherCatV1.02B3,2013-03-16 07:21:00,
2013-03-16 03:26:00,30.1,23.5,29.78,WNW,293,0.0,6.0,76,0.00,,,0.00,WeatherCatV1.02B3,2013-03-16 07:26:00,
2013-03-16 03:31:00,30.0,23.4,29.78,NW,305,0.0,0.0,76,0.00,,,0.00,WeatherCatV1.02B3,2013-03-16 07:31:00,
2013-03-16 03:36:00,29.8,23.2,29.78,West,280,0.0,4.0,76,0.00,,,0.00,WeatherCatV1.02B3,2013-03-16 07:36:00,
2013-03-16 03:41:00,29.7,23.1,29.78,WNW,293,1.0,6.0,76,0.00,,,0.00,WeatherCatV1.02B3,2013-03-16 07:41:00,
2013-03-16 03:46:00,29.6,23.0,29.78,WNW,293,0.0,4.0,76,0.00,,,0.00,WeatherCatV1.02B3,2013-03-16 07:46:00,
2013-03-16 03:51:00,29.4,23.1,29.79,WNW,293,0.0,1.0,77,0.00,,,0.00,WeatherCatV1.02B3,2013-03-16 07:51:00,
2013-03-16 03:56:00,29.3,23.0,29.79,WNW,293,0.0,0.0,77,0.00,,,0.00,WeatherCatV1.02B3,2013-03-16 07:56:00,
2013-03-16 04:01:00,29.0,22.7,29.79,WNW,293,0.0,1.0,77,0.00,,,0.00,WeatherCatV1.02B3,2013-03-16 08:01:00,
2013-03-16 04:06:00,28.8,22.8,29.79,WNW,293,0.0,0.0,78,0.00,,,0.00,WeatherCatV1.02B3,2013-03-16 08:06:00,
2013-03-16 04:11:00,28.6,22.6,29.80,WNW,293,0.0,0.0,78,0.00,,,0.00,WeatherCatV1.02B3,2013-03-16 08:11:00,
2013-03-16 04:16:00,28.3,22.6,29.80,WNW,293,0.0,0.0,79,0.00,,,0.00,WeatherCatV1.02B3,2013-03-16 08:16:00,
2013-03-16 04:21:00,28.1,22.4,29.80,WNW,293,0.0,0.0,79,0.00,,,0.00,WeatherCatV1.02B3,2013-03-16 08:21:00,
2013-03-16 04:26:00,27.9,22.2,29.80,WNW,293,0.0,0.0,79,0.00,,,0.00,WeatherCatV1.02B3,2013-03-16 08:26:00,
2013-03-16 04:31:00,27.7,22.4,29.80,WNW,293,0.0,1.0,80,0.00,,,0.00,WeatherCatV1.02B3,2013-03-16 08:31:00,
2013-03-16 04:36:00,27.6,22.3,29.80,WNW,293,0.0,0.0,80,0.00,,,0.00,WeatherCatV1.02B3,2013-03-16 08:36:00,
2013-03-16 04:41:00,27.6,22.5,29.80,WNW,293,0.0,0.0,81,0.00,,,0.00,WeatherCatV1.02B3,2013-03-16 08:41:00,
2013-03-16 04:46:00,27.5,22.5,29.81,WNW,293,0.0,0.0,81,0.00,,,0.00,WeatherCatV1.02B3,2013-03-16 08:46:00,
2013-03-16 04:51:00,27.3,22.5,29.80,WNW,293,0.0,0.0,82,0.00,,,0.00,WeatherCatV1.02B3,2013-03-16 08:51:00,
2013-03-16 04:56:00,27.2,22.7,29.81,WSW,244,0.0,4.0,83,0.00,,,0.00,WeatherCatV1.02B3,2013-03-16 08:56:00,
2013-03-16 05:01:00,27.3,22.5,29.81,West,272,3.0,3.0,82,0.00,,,0.00,WeatherCatV1.02B3,2013-03-16 09:01:00,
2013-03-16 05:06:00,27.6,21.7,29.81,West,279,2.0,4.0,78,0.00,,,0.00,WeatherCatV1.02B3,2013-03-16 09:06:00,
2013-03-16 05:11:00,27.7,21.1,29.82,West,279,0.0,4.0,76,0.00,,,0.00,WeatherCatV1.02B3,2013-03-16 09:11:00,
2013-03-16 05:16:00,27.7,20.8,29.82,West,279,0.0,4.0,75,0.00,,,0.00,WeatherCatV1.02B3,2013-03-16 09:16:00,
2013-03-16 05:21:00,27.9,20.4,29.82,West,279,4.0,5.0,73,0.00,,,0.00,WeatherCatV1.02B3,2013-03-16 09:21:00,
2013-03-16 05:26:00,28.0,19.8,29.82,WNW,295,4.0,6.0,71,0.00,,,0.00,WeatherCatV1.02B3,2013-03-16 09:26:00,
2013-03-16 05:31:00,28.0,19.2,29.82,West,275,2.0,3.0,69,0.00,,,0.00,WeatherCatV1.02B3,2013-03-16 09:31:00,
2013-03-16 05:36:00,28.1,18.6,29.83,West,275,2.0,4.0,67,0.00,,,0.00,WeatherCatV1.02B3,2013-03-16 09:36:00,
2013-03-16 05:41:00,28.2,18.3,29.83,West,275,0.0,4.0,66,0.00,,,0.00,WeatherCatV1.02B3,2013-03-16 09:41:00,
2013-03-16 05:46:00,28.1,18.2,29.83,West,275,1.0,3.0,66,0.00,,,0.00,WeatherCatV1.02B3,2013-03-16 09:46:00,
2013-03-16 05:51:00,28.1,17.9,29.84,West,275,1.0,3.0,65,0.00,,,0.00,WeatherCatV1.02B3,2013-03-16 09:51:00,
2013-03-16 05:56:00,28.0,17.8,29.83,West,275,0.0,3.0,65,0.00,,,0.00,WeatherCatV1.02B3,2013-03-16 09:56:00,
2013-03-16 06:03:00,28.0,17.8,29.84,WNW,294,3.0,6.0,65,0.00,,,0.00,WeatherCatV1.02B3,2013-03-16 10:03:00,
2013-03-16 06:08:00,28.1,17.2,29.84,WNW,284,0.0,3.0,63,0.00,,,0.00,WeatherCatV1.02B3,2013-03-16 10:08:00,
2013-03-16 06:13:00,28.1,17.5,29.84,WNW,294,0.0,4.0,64,0.00,,,0.00,WeatherCatV1.02B3,2013-03-16 10:13:00,
2013-03-16 06:18:00,28.1,16.8,29.84,WNW,293,0.0,4.0,62,0.00,,,0.00,WeatherCatV1.02B3,2013-03-16 10:18:00,
2013-03-16 06:23:00,28.1,16.8,29.84,NW,319,0.0,5.0,62,0.00,,,0.00,WeatherCatV1.02B3,2013-03-16 10:23:00,
2013-03-16 06:28:00,28.1,16.4,29.85,WNW,289,3.0,3.0,61,0.00,,,0.00,WeatherCatV1.02B3,2013-03-16 10:28:00,
2013-03-16 06:33:00,28.0,16.7,29.85,WNW,289,0.0,0.0,62,0.00,,,0.00,WeatherCatV1.02B3,2013-03-16 10:33:00,
2013-03-16 06:38:00,27.8,16.9,29.85,WNW,289,0.0,0.0,63,0.00,,,0.00,WeatherCatV1.02B3,2013-03-16 10:38:00,
2013-03-16 06:43:00,27.6,17.0,29.85,West,275,0.0,5.0,64,0.00,,,0.00,WeatherCatV1.02B3,2013-03-16 10:43:00,
2013-03-16 06:48:00,27.5,17.7,29.85,NNW,333,3.0,6.0,66,0.00,,,0.00,WeatherCatV1.02B3,2013-03-16 10:48:00,
2013-03-16 06:53:00,27.4,17.9,29.85,NW,314,0.0,2.0,67,0.00,,,0.00,WeatherCatV1.02B3,2013-03-16 10:53:00,
2013-03-16 06:58:00,27.3,18.2,29.85,West,279,0.0,3.0,68,0.00,,,0.00,WeatherCatV1.02B3,2013-03-16 10:58:00,
2013-03-16 07:03:00,27.1,18.0,29.85,NNE,14,0.0,5.0,68,0.00,,,0.00,WeatherCatV1.02B3,2013-03-16 11:03:00,
2013-03-16 07:08:00,27.0,17.9,29.85,West,266,0.0,4.0,68,0.00,,,0.00,WeatherCatV1.02B3,2013-03-16 11:08:00,
2013-03-16 07:13:00,27.0,18.2,29.86,NW,304,0.0,4.0,69,0.00,,,0.00,WeatherCatV1.02B3,2013-03-16 11:13:00,
2013-03-16 07:19:00,26.9,17.8,29.86,North,10,0.0,0.0,68,0.00,,,0.00,WeatherCatV1.02B3,2013-03-16 11:19:00,
2013-03-16 07:24:00,26.9,17.8,29.86,NNW,335,1.0,1.0,68,0.00,,,0.00,WeatherCatV1.02B3,2013-03-16 11:24:00,
2013-03-16 07:29:00,26.9,17.8,29.85,NW,326,0.0,2.0,68,0.00,,,0.00,WeatherCatV1.02B3,2013-03-16 11:29:00,
2013-03-16 07:34:00,26.9,18.1,29.86,NW,326,0.0,0.0,69,0.00,,,0.00,WeatherCatV1.02B3,2013-03-16 11:34:00,
2013-03-16 07:39:00,26.9,17.8,29.87,WNW,295,0.0,0.0,68,0.00,,,0.00,WeatherCatV1.02B3,2013-03-16 11:39:00,
2013-03-16 07:44:00,27.0,17.9,29.87,WNW,295,0.0,2.0,68,0.00,,,0.00,WeatherCatV1.02B3,2013-03-16 11:44:00,
2013-03-16 07:49:00,27.1,17.6,29.87,WNW,297,0.0,1.0,67,0.00,,,0.00,WeatherCatV1.02B3,2013-03-16 11:49:00,
2013-03-16 07:54:00,27.1,17.6,29.87,WNW,298,0.0,4.0,67,0.00,,,0.00,WeatherCatV1.02B3,2013-03-16 11:54:00,
2013-03-16 07:59:00,27.1,18.0,29.87,WNW,299,0.0,6.0,68,0.00,,,0.00,WeatherCatV1.02B3,2013-03-16 11:59:00,
2013-03-16 08:04:00,27.3,18.2,29.87,WNW,297,0.0,0.0,68,0.00,,,0.00,WeatherCatV1.02B3,2013-03-16 12:04:00,
2013-03-16 08:09:00,27.5,18.0,29.88,WNW,295,0.0,0.0,67,0.00,,,0.00,WeatherCatV1.02B3,2013-03-16 12:09:00,
2013-03-16 08:14:00,27.7,18.2,29.88,WNW,294,0.0,0.0,67,0.00,,,0.00,WeatherCatV1.02B3,2013-03-16 12:14:00,
2013-03-16 08:19:00,27.9,18.0,29.88,North,350,2.0,5.0,66,0.00,,,0.00,WeatherCatV1.02B3,2013-03-16 12:19:00,
2013-03-16 08:24:00,27.9,18.0,29.88,WNW,298,3.0,3.0,66,0.00,,,0.00,WeatherCatV1.02B3,2013-03-16 12:24:00,
2013-03-16 08:29:00,28.0,18.5,29.88,West,280,0.0,4.0,67,0.00,,,0.00,WeatherCatV1.02B3,2013-03-16 12:29:00,
2013-03-16 08:34:00,28.2,18.3,29.88,WNW,299,4.0,8.0,66,0.00,,,0.00,WeatherCatV1.02B3,2013-03-16 12:34:00,
2013-03-16 08:39:00,28.2,18.7,29.88,WNW,303,0.0,6.0,67,0.00,,,0.00,WeatherCatV1.02B3,2013-03-16 12:39:00,
2013-03-16 08:44:00,28.4,18.9,29.88,WNW,297,5.0,6.0,67,0.00,,,0.00,WeatherCatV1.02B3,2013-03-16 12:44:00,
2013-03-16 08:49:00,28.5,19.0,29.88,NNW,342,3.0,5.0,67,0.00,,,0.00,WeatherCatV1.02B3,2013-03-16 12:49:00,
2013-03-16 08:54:00,28.6,18.7,29.88,WNW,282,3.0,10.0,66,0.00,,,0.00,WeatherCatV1.02B3,2013-03-16 12:54:00,
2013-03-16 08:59:00,28.7,18.4,29.88,West,274,2.0,5.0,65,0.00,,,0.00,WeatherCatV1.02B3,2013-03-16 12:59:00,
2013-03-16 09:04:00,29.0,18.0,29.88,NW,306,3.0,6.0,63,0.00,,,0.00,WeatherCatV1.02B3,2013-03-16 13:04:00,
2013-03-16 09:09:00,29.1,17.7,29.88,West,260,0.0,6.0,62,0.00,,,0.00,WeatherCatV1.02B3,2013-03-16 13:09:00,
2013-03-16 09:14:00,29.5,18.1,29.88,West,273,0.0,5.0,62,0.00,,,0.00,WeatherCatV1.02B3,2013-03-16 13:14:00,
2013-03-16 09:19:00,29.9,17.7,29.88,West,281,0.0,3.0,60,0.00,,,0.00,WeatherCatV1.02B3,2013-03-16 13:19:00,
2013-03-16 09:24:00,30.2,17.6,29.88,WNW,284,3.0,4.0,59,0.00,,,0.00,WeatherCatV1.02B3,2013-03-16 13:24:00,
2013-03-16 09:29:00,30.6,17.2,29.88,West,274,3.0,3.0,57,0.00,,,0.00,WeatherCatV1.02B3,2013-03-16 13:29:00,
2013-03-16 09:34:00,30.8,15.7,29.88,West,281,3.0,3.0,53,0.00,,,0.00,WeatherCatV1.02B3,2013-03-16 13:34:00,
2013-03-16 09:39:00,30.4,15.3,29.88,WSW,251,9.0,9.0,53,0.00,,,0.00,WeatherCatV1.02B3,2013-03-16 13:39:00,
2013-03-16 09:44:00,29.8,13.9,29.88,WNW,294,6.0,8.0,51,0.00,,,0.00,WeatherCatV1.02B3,2013-03-16 13:44:00,
2013-03-16 09:49:00,29.7,13.4,29.88,West,273,4.0,9.0,50,0.00,,,0.00,WeatherCatV1.02B3,2013-03-16 13:49:00,
2013-03-16 09:54:00,29.8,15.2,29.87,West,265,0.0,2.0,54,0.00,,,0.00,WeatherCatV1.02B3,2013-03-16 13:54:00,
2013-03-16 09:59:00,30.5,15.4,29.88,West,267,3.0,4.0,53,0.00,,,0.00,WeatherCatV1.02B3,2013-03-16 13:59:00,
2013-03-16 10:04:00,30.7,15.2,29.87,West,271,0.0,5.0,52,0.00,,,0.00,WeatherCatV1.02B3,2013-03-16 14:04:00,
2013-03-16 10:09:00,30.6,16.0,29.88,NNE,23,0.0,4.0,54,0.00,,,0.00,WeatherCatV1.02B3,2013-03-16 14:09:00,
2013-03-16 10:14:00,30.9,14.5,29.87,West,277,1.0,6.0,50,0.00,,,0.00,WeatherCatV1.02B3,2013-03-16 14:14:00,
2013-03-16 10:19:00,31.0,14.1,29.87,WNW,288,7.0,7.0,49,0.00,,,0.00,WeatherCatV1.02B3,2013-03-16 14:19:00,
2013-03-16 10:24:00,30.7,13.8,29.87,West,266,5.0,7.0,49,0.00,,,0.00,WeatherCatV1.02B3,2013-03-16 14:24:00,
2013-03-16 10:29:00,30.8,14.4,29.87,West,281,1.0,3.0,50,0.00,,,0.00,WeatherCatV1.02B3,2013-03-16 14:29:00,
2013-03-16 10:34:00,31.0,13.2,29.87,NE,47,0.0,3.0,47,0.00,,,0.00,WeatherCatV1.02B3,2013-03-16 14:34:00,
2013-03-16 10:39:00,30.6,13.3,29.86,West,277,1.0,5.0,48,0.00,,,0.00,WeatherCatV1.02B3,2013-03-16 14:39:00,
2013-03-16 10:44:00,30.4,13.6,29.86,West,280,3.0,6.0,49,0.00,,,0.00,WeatherCatV1.02B3,2013-03-16 14:44:00,
2013-03-16 10:49:00,30.1,13.3,29.86,West,264,2.0,4.0,49,0.00,,,0.00,WeatherCatV1.02B3,2013-03-16 14:49:00,
2013-03-16 10:54:00,30.1,13.3,29.86,West,261,0.0,4.0,49,0.00,,,0.00,WeatherCatV1.02B3,2013-03-16 14:54:00,
2013-03-16 10:59:00,30.5,14.6,29.87,West,262,0.0,1.0,51,0.00,,,0.00,WeatherCatV1.02B3,2013-03-16 14:59:00,
2013-03-16 11:04:00,30.8,13.9,29.87,West,259,5.0,7.0,49,0.00,,,0.00,WeatherCatV1.02B3,2013-03-16 15:04:00,
2013-03-16 11:09:00,30.7,11.9,29.86,WSW,251,3.0,8.0,45,0.00,,,0.00,WeatherCatV1.02B3,2013-03-16 15:09:00,
2013-03-16 11:14:00,30.7,12.4,29.86,WNW,292,5.0,6.0,46,0.00,,,0.00,WeatherCatV1.02B3,2013-03-16 15:14:00,
2013-03-16 11:19:00,30.7,11.9,29.86,West,271,0.0,7.0,45,0.00,,,0.00,WeatherCatV1.02B3,2013-03-16 15:19:00,
2013-03-16 11:24:00,31.0,12.2,29.86,West,272,2.0,2.0,45,0.00,,,0.00,WeatherCatV1.02B3,2013-03-16 15:24:00,
2013-03-16 11:29:00,31.1,12.8,29.86,WSW,242,2.0,3.0,46,0.00,,,0.00,WeatherCatV1.02B3,2013-03-16 15:29:00,
2013-03-16 11:34:00,31.2,12.9,29.85,West,280,3.0,4.0,46,0.00,,,0.00,WeatherCatV1.02B3,2013-03-16 15:34:00,
2013-03-16 11:39:00,31.2,13.3,29.85,WSW,255,1.0,1.0,47,0.00,,,0.00,WeatherCatV1.02B3,2013-03-16 15:39:00,
2013-03-16 11:44:00,31.3,13.4,29.85,West,263,0.0,4.0,47,0.00,,,0.00,WeatherCatV1.02B3,2013-03-16 15:44:00,
2013-03-16 11:49:00,31.4,14.0,29.85,West,269,4.0,8.0,48,0.00,,,0.00,WeatherCatV1.02B3,2013-03-16 15:49:00,
2013-03-16 11:54:00,31.6,13.2,29.86,West,275,2.0,4.0,46,0.00,,,0.00,WeatherCatV1.02B3,2013-03-16 15:54:00,
2013-03-16 11:59:00,31.5,13.1,29.85,West,269,3.0,4.0,46,0.00,,,0.00,WeatherCatV1.02B3,2013-03-16 15:59:00,
2013-03-16 12:04:00,31.6,13.2,29.85,WSW,242,0.0,8.0,46,0.00,,,0.00,WeatherCatV1.02B3,2013-03-16 16:04:00,
2013-03-16 12:09:00,32.2,12.8,29.85,West,271,2.0,8.0,44,0.00,,,0.00,WeatherCatV1.02B3,2013-03-16 16:09:00,
2013-03-16 12:14:00,32.6,12.6,29.85,SSW,205,5.0,6.0,43,0.00,,,0.00,WeatherCatV1.02B3,2013-03-16 16:14:00,
2013-03-16 12:19:00,32.7,12.7,29.85,West,265,4.0,4.0,43,0.00,,,0.00,WeatherCatV1.02B3,2013-03-16 16:19:00,
2013-03-16 12:24:00,32.6,11.5,29.84,NW,311,4.0,6.0,41,0.00,,,0.00,WeatherCatV1.02B3,2013-03-16 16:24:00,
2013-03-16 12:29:00,32.8,11.7,29.84,West,265,1.0,4.0,41,0.00,,,0.00,WeatherCatV1.02B3,2013-03-16 16:29:00,
2013-03-16 12:34:00,33.0,12.4,29.84,WNW,288,0.0,6.0,42,0.00,,,0.00,WeatherCatV1.02B3,2013-03-16 16:34:00,
2013-03-16 12:39:00,33.3,12.7,29.84,West,281,0.0,0.0,42,0.00,,,0.00,WeatherCatV1.02B3,2013-03-16 16:39:00,
2013-03-16 12:44:00,33.9,12.7,29.84,WNW,294,0.0,6.0,41,0.00,,,0.00,WeatherCatV1.02B3,2013-03-16 16:44:00,
2013-03-16 12:49:00,33.8,14.2,29.83,NNW,339,0.0,3.0,44,0.00,,,0.00,WeatherCatV1.02B3,2013-03-16 16:49:00,
2013-03-16 12:54:00,34.1,12.3,29.83,WSW,258,3.0,7.0,40,0.00,,,0.00,WeatherCatV1.02B3,2013-03-16 16:54:00,
2013-03-16 12:59:00,34.2,13.5,29.83,NW,322,0.0,5.0,42,0.00,,,0.00,WeatherCatV1.02B3,2013-03-16 16:59:00,
2013-03-16 13:04:00,34.8,13.0,29.83,SSW,199,5.0,5.0,40,0.00,,,0.00,WeatherCatV1.02B3,2013-03-16 17:04:00,
2013-03-16 13:09:00,35.3,12.8,29.82,SSW,200,2.0,5.0,39,0.00,,,0.00,WeatherCatV1.02B3,2013-03-16 17:09:00,
2013-03-16 13:14:00,35.6,12.5,29.82,West,268,1.0,5.0,38,0.00,,,0.00,WeatherCatV1.02B3,2013-03-16 17:14:00,
2013-03-16 13:19:00,35.3,12.3,29.83,West,272,3.0,3.0,38,0.00,,,0.00,WeatherCatV1.02B3,2013-03-16 17:19:00,
2013-03-16 13:24:00,35.2,12.2,29.82,SSW,199,0.0,2.0,38,0.00,,,0.00,WeatherCatV1.02B3,2013-03-16 17:24:00,
2013-03-16 13:29:00,34.7,11.7,29.82,SW,236,7.0,7.0,38,0.00,,,0.00,WeatherCatV1.02B3,2013-03-16 17:29:00,
2013-03-16 13:34:00,34.5,10.9,29.83,West,269,2.0,7.0,37,0.00,,,0.00,WeatherCatV1.02B3,2013-03-16 17:34:00,
2013-03-16 13:39:00,34.3,10.8,29.83,WSW,258,0.0,3.0,37,0.00,,,0.00,WeatherCatV1.02B3,2013-03-16 17:39:00,
2013-03-16 13:44:00,34.4,10.2,29.82,West,279,0.0,3.0,36,0.00,,,0.00,WeatherCatV1.02B3,2013-03-16 17:44:00,
2013-03-16 13:49:00,34.7,11.1,29.82,South,178,1.0,2.0,37,0.00,,,0.00,WeatherCatV1.02B3,2013-03-16 17:49:00,
2013-03-16 13:54:00,35.0,12.0,29.82,West,278,0.0,6.0,38,0.00,,,0.00,WeatherCatV1.02B3,2013-03-16 17:54:00,
2013-03-16 13:59:00,35.4,11.7,29.82,SSW,193,4.0,4.0,37,0.00,,,0.00,WeatherCatV1.02B3,2013-03-16 17:59:00,
2013-03-16 14:04:00,35.8,12.1,29.81,SSW,204,3.0,9.0,37,0.00,,,0.00,WeatherCatV1.02B3,2013-03-16 18:04:00,
2013-03-16 14:09:00,36.1,12.4,29.81,West,267,0.0,3.0,37,0.00,,,0.00,WeatherCatV1.02B3,2013-03-16 18:09:00,
2013-03-16 14:14:00,35.9,11.6,29.81,West,268,0.0,6.0,36,0.00,,,0.00,WeatherCatV1.02B3,2013-03-16 18:14:00,
2013-03-16 14:20:00,36.0,13.5,29.81,WNW,302,0.0,1.0,39,0.00,,,0.00,WeatherCatV1.02B3,2013-03-16 18:20:00,
2013-03-16 14:25:00,36.2,11.8,29.81,West,281,0.0,3.0,36,0.00,,,0.00,WeatherCatV1.02B3,2013-03-16 18:25:00,
2013-03-16 14:30:00,35.9,12.8,29.81,SW,235,0.0,3.0,38,0.00,,,0.00,WeatherCatV1.02B3,2013-03-16 18:30:00,
2013-03-16 14:37:00,36.2,12.5,29.81,West,273,4.0,4.0,37,0.00,,,0.00,WeatherCatV1.02B3,2013-03-16 18:37:00,
2013-03-16 14:42:00,36.1,13.0,29.82,SSW,192,0.0,3.0,38,0.00,,,0.00,WeatherCatV1.02B3,2013-03-16 18:42:00,
2013-03-16 14:47:00,36.2,12.5,29.81,West,275,3.0,8.0,37,0.00,,,0.00,WeatherCatV1.02B3,2013-03-16 18:47:00,
2013-03-16 14:52:00,35.9,11.6,29.81,SSW,209,2.0,7.0,36,0.00,,,0.00,WeatherCatV1.02B3,2013-03-16 18:52:00,
2013-03-16 14:57:00,36.1,11.8,29.81,WSW,238,0.0,3.0,36,0.00,,,0.00,WeatherCatV1.02B3,2013-03-16 18:57:00,
2013-03-16 15:02:00,36.6,12.8,29.81,WNW,288,5.0,6.0,37,0.00,,,0.00,WeatherCatV1.02B3,2013-03-16 19:02:00,
2013-03-16 15:07:00,36.9,12.5,29.81,WSW,250,2.0,5.0,36,0.00,,,0.00,WeatherCatV1.02B3,2013-03-16 19:07:00,
2013-03-16 15:12:00,36.6,11.6,29.81,South,182,0.0,5.0,35,0.00,,,0.00,WeatherCatV1.02B3,2013-03-16 19:12:00,
2013-03-16 15:17:00,36.3,10.7,29.81,SW,220,2.0,5.0,34,0.00,,,0.00,WeatherCatV1.02B3,2013-03-16 19:17:00,
2013-03-16 15:22:00,36.3,12.6,29.81,West,268,5.0,10.0,37,0.00,,,0.00,WeatherCatV1.02B3,2013-03-16 19:22:00,
2013-03-16 15:27:00,36.1,11.1,29.80,West,268,0.0,5.0,35,0.00,,,0.00,WeatherCatV1.02B3,2013-03-16 19:27:00,
2013-03-16 15:32:00,35.9,11.6,29.81,WNW,290,7.0,7.0,36,0.00,,,0.00,WeatherCatV1.02B3,2013-03-16 19:32:00,
2013-03-16 15:37:00,36.1,11.8,29.81,SW,234,0.0,4.0,36,0.00,,,0.00,WeatherCatV1.02B3,2013-03-16 19:37:00,
2013-03-16 15:42:00,37.0,12.6,29.82,West,276,6.0,6.0,36,0.00,,,0.00,WeatherCatV1.02B3,2013-03-16 19:42:00,
2013-03-16 15:47:00,37.0,11.9,29.81,West,279,10.0,10.0,35,0.00,,,0.00,WeatherCatV1.02B3,2013-03-16 19:47:00,
2013-03-16 15:52:00,36.8,13.0,29.80,NW,313,4.0,8.0,37,0.00,,,0.00,WeatherCatV1.02B3,2013-03-16 19:52:00,
2013-03-16 15:57:00,36.8,13.0,29.81,WNW,292,3.0,4.0,37,0.00,,,0.00,WeatherCatV1.02B3,2013-03-16 19:57:00,
2013-03-16 16:02:00,36.6,12.2,29.80,WNW,292,0.0,0.0,36,0.00,,,0.00,WeatherCatV1.02B3,2013-03-16 20:02:00,
2013-03-16 16:07:00,36.8,13.6,29.80,WSW,255,2.0,5.0,38,0.00,,,0.00,WeatherCatV1.02B3,2013-03-16 20:07:00,
2013-03-16 16:12:00,37.1,13.3,29.80,NW,319,7.0,7.0,37,0.00,,,0.00,WeatherCatV1.02B3,2013-03-16 20:12:00,
2013-03-16 16:17:00,37.3,12.8,29.80,WNW,287,0.0,2.0,36,0.00,,,0.00,WeatherCatV1.02B3,2013-03-16 20:17:00,
2013-03-16 16:22:00,37.8,13.9,29.79,West,281,6.0,7.0,37,0.00,,,0.00,WeatherCatV1.02B3,2013-03-16 20:22:00,
2013-03-16 16:27:00,38.1,14.8,29.79,West,272,0.0,4.0,38,0.00,,,0.00,WeatherCatV1.02B3,2013-03-16 20:27:00,
2013-03-16 16:32:00,38.5,13.9,29.79,WNW,283,4.0,6.0,36,0.00,,,0.00,WeatherCatV1.02B3,2013-03-16 20:32:00,
2013-03-16 16:37:00,38.7,14.1,29.79,WNW,298,4.0,6.0,36,0.00,,,0.00,WeatherCatV1.02B3,2013-03-16 20:37:00,
2013-03-16 16:42:00,38.7,14.7,29.79,WNW,300,1.0,3.0,37,0.00,,,0.00,WeatherCatV1.02B3,2013-03-16 20:42:00,
2013-03-16 16:47:00,38.3,13.1,29.79,WNW,285,2.0,4.0,35,0.00,,,0.00,WeatherCatV1.02B3,2013-03-16 20:47:00,
2013-03-16 16:52:00,37.7,13.2,29.79,WNW,286,4.0,5.0,36,0.00,,,0.00,WeatherCatV1.02B3,2013-03-16 20:52:00,
2013-03-16 16:57:00,37.3,12.8,29.79,WNW,290,0.0,2.0,36,0.00,,,0.00,WeatherCatV1.02B3,2013-03-16 20:57:00,
2013-03-16 17:02:00,37.4,14.1,29.79,WNW,290,0.0,2.0,38,0.00,,,0.00,WeatherCatV1.02B3,2013-03-16 21:02:00,
2013-03-16 17:07:00,37.4,14.1,29.79,SSE,161,0.0,4.0,38,0.00,,,0.00,WeatherCatV1.02B3,2013-03-16 21:07:00,
2013-03-16 17:12:00,37.5,14.2,29.79,West,269,2.0,5.0,38,0.00,,,0.00,WeatherCatV1.02B3,2013-03-16 21:12:00,
2013-03-16 17:17:00,37.3,13.4,29.79,WNW,290,1.0,3.0,37,0.00,,,0.00,WeatherCatV1.02B3,2013-03-16 21:17:00,
2013-03-16 17:22:00,37.5,14.2,29.79,WNW,290,0.0,2.0,38,0.00,,,0.00,WeatherCatV1.02B3,2013-03-16 21:22:00,
2013-03-16 17:27:00,37.5,14.2,29.79,WNW,290,0.0,1.0,38,0.00,,,0.00,WeatherCatV1.02B3,2013-03-16 21:27:00,
2013-03-16 17:32:00,37.3,15.2,29.79,West,264,5.0,5.0,40,0.00,,,0.00,WeatherCatV1.02B3,2013-03-16 21:32:00,
2013-03-16 17:37:00,37.0,14.4,29.79,West,264,0.0,0.0,39,0.00,,,0.00,WeatherCatV1.02B3,2013-03-16 21:37:00,
2013-03-16 17:42:00,36.9,14.9,29.79,West,264,0.0,0.0,40,0.00,,,0.00,WeatherCatV1.02B3,2013-03-16 21:42:00,
2013-03-16 17:47:00,36.8,15.3,29.79,West,264,2.0,2.0,41,0.00,,,0.00,WeatherCatV1.02B3,2013-03-16 21:47:00,
2013-03-16 17:52:00,36.8,14.8,29.79,NNW,348,1.0,3.0,40,0.00,,,0.00,WeatherCatV1.02B3,2013-03-16 21:52:00,
2013-03-16 17:57:00,36.7,14.1,29.79,WNW,289,0.0,4.0,39,0.00,,,0.00,WeatherCatV1.02B3,2013-03-16 21:57:00,
2013-03-16 18:02:00,36.4,13.8,29.79,WNW,285,3.0,6.0,39,0.00,,,0.00,WeatherCatV1.02B3,2013-03-16 22:02:00,
2013-03-16 18:07:00,36.3,14.3,29.79,WNW,293,0.0,4.0,40,0.00,,,0.00,WeatherCatV1.02B3,2013-03-16 22:07:00,
2013-03-16 18:12:00,36.1,13.6,29.79,WNW,293,0.0,5.0,39,0.00,,,0.00,WeatherCatV1.02B3,2013-03-16 22:12:00,
2013-03-16 18:17:00,36.0,12.9,29.79,WNW,293,2.0,4.0,38,0.00,,,0.00,WeatherCatV1.02B3,2013-03-16 22:17:00,
2013-03-16 18:22:00,35.9,14.0,29.79,WNW,290,4.0,5.0,40,0.00,,,0.00,WeatherCatV1.02B3,2013-03-16 22:22:00,
2013-03-16 18:27:00,35.7,12.6,29.79,WNW,292,0.0,1.0,38,0.00,,,0.00,WeatherCatV1.02B3,2013-03-16 22:27:00,
2013-03-16 18:32:00,35.6,12.5,29.79,WNW,292,0.0,1.0,38,0.00,,,0.00,WeatherCatV1.02B3,2013-03-16 22:32:00,
2013-03-16 18:37:00,35.5,12.4,29.79,WNW,292,0.0,0.0,38,0.00,,,0.00,WeatherCatV1.02B3,2013-03-16 22:37:00,
2013-03-16 18:42:00,35.5,11.8,29.80,WNW,290,0.0,0.0,37,0.00,,,0.00,WeatherCatV1.02B3,2013-03-16 22:42:00,
2013-03-16 18:47:00,35.3,12.3,29.80,WNW,290,0.0,2.0,38,0.00,,,0.00,WeatherCatV1.02B3,2013-03-16 22:47:00,
2013-03-16 18:52:00,35.3,12.8,29.81,WNW,294,0.0,2.0,39,0.00,,,0.00,WeatherCatV1.02B3,2013-03-16 22:52:00,
2013-03-16 18:57:00,35.2,12.2,29.81,WNW,294,0.0,3.0,38,0.00,,,0.00,WeatherCatV1.02B3,2013-03-16 22:57:00,
2013-03-16 19:02:00,35.1,12.1,29.81,WNW,294,0.0,1.0,38,0.00,,,0.00,WeatherCatV1.02B3,2013-03-16 23:02:00,
2013-03-16 19:07:00,35.1,14.3,29.81,WNW,294,0.0,1.0,42,0.00,,,0.00,WeatherCatV1.02B3,2013-03-16 23:07:00,
2013-03-16 19:12:00,35.0,12.0,29.81,WNW,294,0.0,0.0,38,0.00,,,0.00,WeatherCatV1.02B3,2013-03-16 23:12:00,
2013-03-16 19:17:00,34.9,11.9,29.80,WNW,294,0.0,2.0,38,0.00,,,0.00,WeatherCatV1.02B3,2013-03-16 23:17:00,
2013-03-16 19:22:00,34.8,12.4,29.81,WNW,294,0.0,4.0,39,0.00,,,0.00,WeatherCatV1.02B3,2013-03-16 23:22:00,
2013-03-16 19:27:00,34.8,12.4,29.81,WNW,294,0.0,4.0,39,0.00,,,0.00,WeatherCatV1.02B3,2013-03-16 23:27:00,
2013-03-16 19:32:00,34.7,12.9,29.81,WNW,294,1.0,3.0,40,0.00,,,0.00,WeatherCatV1.02B3,2013-03-16 23:32:00,
2013-03-16 19:37:00,34.7,12.9,29.82,WNW,294,0.0,1.0,40,0.00,,,0.00,WeatherCatV1.02B3,2013-03-16 23:37:00,
2013-03-16 19:42:00,34.7,12.9,29.82,West,277,0.0,5.0,40,0.00,,,0.00,WeatherCatV1.02B3,2013-03-16 23:42:00,
2013-03-16 19:47:00,34.6,13.3,29.82,WNW,298,0.0,0.0,41,0.00,,,0.00,WeatherCatV1.02B3,2013-03-16 23:47:00,
2013-03-16 19:52:00,34.6,13.3,29.82,WNW,302,0.0,3.0,41,0.00,,,0.00,WeatherCatV1.02B3,2013-03-16 23:52:00,
2013-03-16 19:57:00,34.6,13.9,29.82,WNW,302,0.0,1.0,42,0.00,,,0.00,WeatherCatV1.02B3,2013-03-16 23:57:00,
2013-03-16 20:02:00,34.6,13.3,29.83,WNW,302,0.0,3.0,41,0.00,,,0.00,WeatherCatV1.02B3,2013-03-17 00:02:00,
2013-03-16 20:07:00,34.5,13.8,29.82,WNW,302,0.0,0.0,42,0.00,,,0.00,WeatherCatV1.02B3,2013-03-17 00:07:00,
2013-03-16 20:12:00,34.5,13.8,29.83,WNW,303,0.0,0.0,42,0.00,,,0.00,WeatherCatV1.02B3,2013-03-17 00:12:00,
2013-03-16 20:17:00,34.5,14.3,29.83,WNW,303,0.0,3.0,43,0.00,,,0.00,WeatherCatV1.02B3,2013-03-17 00:17:00,
2013-03-16 20:22:00,34.4,14.2,29.83,WNW,303,0.0,2.0,43,0.00,,,0.00,WeatherCatV1.02B3,2013-03-17 00:22:00,
2013-03-16 20:27:00,34.4,14.2,29.83,WNW,303,0.0,4.0,43,0.00,,,0.00,WeatherCatV1.02B3,2013-03-17 00:27:00,
2013-03-16 20:32:00,34.3,14.2,29.83,WNW,303,0.0,0.0,43,0.00,,,0.00,WeatherCatV1.02B3,2013-03-17 00:32:00,
2013-03-16 20:37:00,34.3,15.2,29.84,WNW,303,0.0,0.0,45,0.00,,,0.00,WeatherCatV1.02B3,2013-03-17 00:37:00,
2013-03-16 20:42:00,34.2,15.1,29.84,WNW,303,0.0,0.0,45,0.00,,,0.00,WeatherCatV1.02B3,2013-03-17 00:42:00,
2013-03-16 20:47:00,34.1,15.0,29.84,WNW,303,0.0,0.0,45,0.00,,,0.00,WeatherCatV1.02B3,2013-03-17 00:47:00,
2013-03-16 20:52:00,34.1,15.0,29.84,WNW,303,0.0,0.0,45,0.00,,,0.00,WeatherCatV1.02B3,2013-03-17 00:52:00,
2013-03-16 20:57:00,34.0,15.4,29.84,WNW,303,0.0,0.0,46,0.00,,,0.00,WeatherCatV1.02B3,2013-03-17 00:57:00,
2013-03-16 21:03:00,33.9,15.8,29.84,WNW,303,0.0,0.0,47,0.00,,,0.00,WeatherCatV1.02B3,2013-03-17 01:03:00,
2013-03-16 21:08:00,33.8,16.2,29.84,WNW,303,0.0,0.0,48,0.00,,,0.00,WeatherCatV1.02B3,2013-03-17 01:08:00,
2013-03-16 21:13:00,33.7,15.6,29.84,WNW,303,0.0,0.0,47,0.00,,,0.00,WeatherCatV1.02B3,2013-03-17 01:13:00,
2013-03-16 21:18:00,33.6,16.0,29.85,WNW,303,0.0,0.0,48,0.00,,,0.00,WeatherCatV1.02B3,2013-03-17 01:18:00,
2013-03-16 21:23:00,33.5,15.9,29.85,WNW,303,0.0,0.0,48,0.00,,,0.00,WeatherCatV1.02B3,2013-03-17 01:23:00,
2013-03-16 21:28:00,33.4,16.3,29.85,WNW,303,0.0,0.0,49,0.00,,,0.00,WeatherCatV1.02B3,2013-03-17 01:28:00,
2013-03-16 21:33:00,33.3,16.2,29.85,WNW,303,0.0,0.0,49,0.00,,,0.00,WeatherCatV1.02B3,2013-03-17 01:33:00,
2013-03-16 21:38:00,33.2,16.1,29.85,WNW,303,0.0,0.0,49,0.00,,,0.00,WeatherCatV1.02B3,2013-03-17 01:38:00,
2013-03-16 21:43:00,33.1,17.4,29.85,WNW,303,0.0,0.0,52,0.00,,,0.00,WeatherCatV1.02B3,2013-03-17 01:43:00,
2013-03-16 21:48:00,33.0,16.4,29.86,WNW,303,0.0,0.0,50,0.00,,,0.00,WeatherCatV1.02B3,2013-03-17 01:48:00,
2013-03-16 21:53:00,32.9,17.2,29.85,WNW,303,0.0,0.0,52,0.00,,,0.00,WeatherCatV1.02B3,2013-03-17 01:53:00,
2013-03-16 21:58:00,32.8,17.1,29.86,WNW,303,0.0,0.0,52,0.00,,,0.00,WeatherCatV1.02B3,2013-03-17 01:58:00,
2013-03-16 22:04:00,32.8,17.6,29.86,WNW,303,0.0,0.0,53,0.00,,,0.00,WeatherCatV1.02B3,2013-03-17 02:04:00,
2013-03-16 22:09:00,32.7,17.0,29.86,WNW,303,0.0,1.0,52,0.00,,,0.00,WeatherCatV1.02B3,2013-03-17 02:09:00,
2013-03-16 22:14:00,32.7,17.9,29.87,WNW,303,0.0,0.0,54,0.00,,,0.00,WeatherCatV1.02B3,2013-03-17 02:14:00,
2013-03-16 22:19:00,32.6,17.8,29.87,WNW,303,0.0,0.0,54,0.00,,,0.00,WeatherCatV1.02B3,2013-03-17 02:19:00,
2013-03-16 22:24:00,32.6,17.8,29.87,WNW,303,0.0,0.0,54,0.00,,,0.00,WeatherCatV1.02B3,2013-03-17 02:24:00,
2013-03-16 22:29:00,32.5,17.3,29.87,WNW,303,0.0,0.0,53,0.00,,,0.00,WeatherCatV1.02B3,2013-03-17 02:29:00,
2013-03-16 22:34:00,32.5,17.3,29.87,WNW,303,0.0,0.0,53,0.00,,,0.00,WeatherCatV1.02B3,2013-03-17 02:34:00,
2013-03-16 22:39:00,32.5,17.3,29.87,WNW,302,0.0,2.0,53,0.00,,,0.00,WeatherCatV1.02B3,2013-03-17 02:39:00,
2013-03-16 22:44:00,32.6,18.7,29.88,WNW,303,0.0,0.0,56,0.00,,,0.00,WeatherCatV1.02B3,2013-03-17 02:44:00,
2013-03-16 22:49:00,32.6,18.2,29.88,WNW,302,0.0,0.0,55,0.00,,,0.00,WeatherCatV1.02B3,2013-03-17 02:49:00,
2013-03-16 22:54:00,32.6,18.2,29.88,WNW,302,0.0,0.0,55,0.00,,,0.00,WeatherCatV1.02B3,2013-03-17 02:54:00,
2013-03-16 22:59:00,32.6,18.2,29.88,WNW,302,0.0,0.0,55,0.00,,,0.00,WeatherCatV1.02B3,2013-03-17 02:59:00,
2013-03-16 23:04:00,32.6,16.9,29.88,WNW,302,1.0,4.0,52,0.00,,,0.00,WeatherCatV1.02B3,2013-03-17 03:04:00,
2013-03-16 23:09:00,32.8,17.6,29.88,WNW,302,0.0,1.0,53,0.00,,,0.00,WeatherCatV1.02B3,2013-03-17 03:09:00,
2013-03-16 23:14:00,32.9,17.7,29.88,WNW,302,0.0,0.0,53,0.00,,,0.00,WeatherCatV1.02B3,2013-03-17 03:14:00,
2013-03-16 23:19:00,32.9,18.5,29.88,WNW,302,0.0,0.0,55,0.00,,,0.00,WeatherCatV1.02B3,2013-03-17 03:19:00,
2013-03-16 23:24:00,32.8,20.5,29.88,WNW,302,0.0,0.0,60,0.00,,,0.00,WeatherCatV1.02B3,2013-03-17 03:24:00,
2013-03-16 23:29:00,32.4,19.3,29.89,WNW,302,0.0,0.0,58,0.00,,,0.00,WeatherCatV1.02B3,2013-03-17 03:29:00,
2013-03-16 23:34:00,32.0,19.7,29.89,WNW,302,0.0,0.0,60,0.00,,,0.00,WeatherCatV1.02B3,2013-03-17 03:34:00,
2013-03-16 23:39:00,31.7,19.0,29.89,WNW,302,0.0,0.0,59,0.00,,,0.00,WeatherCatV1.02B3,2013-03-17 03:39:00,
2013-03-16 23:44:00,31.3,18.3,29.89,WNW,302,0.0,0.0,58,0.00,,,0.00,WeatherCatV1.02B3,2013-03-17 03:44:00,
2013-03-16 23:49:00,30.9,17.9,29.90,WNW,302,0.0,0.0,58,0.00,,,0.00,WeatherCatV1.02B3,2013-03-17 03:49:00,
2013-03-16 23:54:00,30.6,17.2,29.90,WNW,302,0.0,0.0,57,0.00,,,0.00,WeatherCatV1.02B3,2013-03-17 03:54:00,
2013-03-16 23:59:00,30.3,17.7,29.90,WNW,302,0.0,0.0,59,0.00,,,0.00,WeatherCatV1.02B3,2013-03-17 03:59:00,